Terminal Aerodrome Forecast
Issued by NWS

Home | Current Version | Previous Version | Text Only | Print | Product List | Glossary On
Versions: 1 2 3 4 5 6 7 8 9 10 11 12 13 14 15
000
FTUS43 KEAX 300520
TAFMKC
TAF
KMKC 300520Z 3006/0106 09015G25KT 5SM BR OVC006
     FM300800 10014KT 4SM BR VCSH OVC005
     FM301100 12012KT 3SM -RA BR OVC004
     FM301500 18015KT P6SM SCT012 BKN027
     FM010300 21009KT 6SM BR OVC012=

USA.gov is the U.S. government's official web portal to all federal, state and local government web resources and services.